createdAt,value
2022-10-10T00:11:46.184Z,69.20
2022-10-10T00:42:51.888Z,50.60
2022-10-10T00:57:55.374Z,52.90
2022-10-10T01:13:08.054Z,49.70
2022-10-10T01:28:20.672Z,56.20
2022-10-10T01:43:26.192Z,59.30
2022-10-10T01:58:36.360Z,54.20
2022-10-10T02:14:02.934Z,47.80
2022-10-10T02:29:11.545Z,42.00
2022-10-10T02:44:15.013Z,55.40
2022-10-10T02:59:18.436Z,41.00
2022-10-10T03:14:22.288Z,38.70
2022-10-10T03:29:25.350Z,55.20
2022-10-10T03:44:28.534Z,42.90
2022-10-10T03:59:31.606Z,31.00
2022-10-10T04:14:34.967Z,30.80
2022-10-10T04:29:38.134Z,35.40
2022-10-10T04:44:41.144Z,40.60
2022-10-10T04:59:44.214Z,32.20
2022-10-10T05:14:48.371Z,30.60
2022-10-10T05:29:52.007Z,69.10
2022-10-10T05:44:55.179Z,101.50
2022-10-10T05:59:58.099Z,51.20
2022-10-10T06:15:01.468Z,27.10
2022-10-10T06:30:05.689Z,40.10
2022-10-10T06:45:09.419Z,33.10
2022-10-10T07:00:13.331Z,60.20
2022-10-10T07:15:16.885Z,51.30
2022-10-10T07:30:19.895Z,37.80
2022-10-10T07:45:23.289Z,17.60
2022-10-10T08:00:26.987Z,14.80
2022-10-10T08:15:33.826Z,82.60
2022-10-10T08:30:41.460Z,53.20
2022-10-10T08:45:44.994Z,14.50
2022-10-10T09:01:08.588Z,13.40
2022-10-10T09:16:36.966Z,13.00
2022-10-10T09:31:48.079Z,8.70
2022-10-10T09:46:52.640Z,10.70
2022-10-10T10:02:13.534Z,8.20
2022-10-10T10:17:21.668Z,8.10
2022-10-10T10:32:55.573Z,8.90
2022-10-10T10:48:27.234Z,12.20
2022-10-10T11:05:23.465Z,7.60
2022-10-10T11:19:44.897Z,8.10
2022-10-10T11:35:03.308Z,7.40
2022-10-10T11:50:18.653Z,6.00
2022-10-10T12:05:26.605Z,6.70
2022-10-10T12:20:36.192Z,9.00
2022-10-10T12:35:41.691Z,9.50
2022-10-10T12:51:03.644Z,6.70
2022-10-10T13:06:27.796Z,17.70
2022-10-10T13:21:34.449Z,7.50
2022-10-10T13:36:38.727Z,16.40
2022-10-10T13:51:47.391Z,13.00
2022-10-10T14:07:03.987Z,12.00
2022-10-10T14:22:08.318Z,6.60
2022-10-10T14:37:18.354Z,8.60
2022-10-10T14:52:21.743Z,8.70
2022-10-10T15:07:25.644Z,7.70
2022-10-10T15:22:30.993Z,11.10
2022-10-10T15:37:34.881Z,28.00
2022-10-10T15:52:39.244Z,26.00
2022-10-10T16:07:47.958Z,16.00
2022-10-10T16:37:55.970Z,114.80
2022-10-10T16:53:00.975Z,71.50
2022-10-10T17:08:06.081Z,16.50
2022-10-10T17:23:11.331Z,19.00
2022-10-10T17:38:38.652Z,19.60
2022-10-10T17:53:40.006Z,39.50
2022-10-10T18:08:44.959Z,16.50
2022-10-10T18:23:49.042Z,16.90
2022-10-10T18:38:52.524Z,17.00
2022-10-10T18:54:01.238Z,15.00
2022-10-10T19:09:08.098Z,11.90
2022-10-10T19:24:15.840Z,10.00
2022-10-10T19:39:19.010Z,8.10
2022-10-10T19:54:22.224Z,9.30
2022-10-10T20:09:28.108Z,7.80
2022-10-10T20:24:31.759Z,10.70
2022-10-10T20:39:36.213Z,12.80
2022-10-10T20:54:40.069Z,6.50
2022-10-10T21:09:43.426Z,7.20
2022-10-10T21:24:46.385Z,11.50
2022-10-10T21:39:49.390Z,10.80
2022-10-10T21:54:52.864Z,9.40
2022-10-10T22:09:56.129Z,9.70
2022-10-10T22:24:59.049Z,9.70
2022-10-10T22:40:03.004Z,15.50
2022-10-10T22:55:07.510Z,12.00
2022-10-10T23:10:11.201Z,9.80
2022-10-10T23:25:14.502Z,10.70
2022-10-10T23:40:17.657Z,15.00
2022-10-10T23:55:20.999Z,15.30
